Merigold, Mississippi
Current Conditions -  °F | °C
As of 6:55 AM on Sunday 23 Nov 2014 (Local Time) from KRNV Reporting Station
Drizzle Drizzle  
Wind Chill: 60°   Ceiling: 700
Heat Index: 60°   Visibility: 7mi
Dew Point: 59°   Wind: 12mph
Humidity: 99%   Direction: 130°SE
Pressure: 29.71"   Gusts: NA
Location:  33.84°N, 90.73°W
Report Text: KRNV 231255Z AUTO 13010KT 7SM -DZ OVC007 15/15 A2971 RMK AO2 T01540152
Loading
Personal Weather Stations






























Interactive Weather Map New forecast layout! Learn more

10-Day Weather Forecast

Advertisements
Track Severe Weather on mobile